sensor_id;sensor_type;location;lat;lon;timestamp;pressure;altitude;pressure_sealevel;temperature;humidity
9855;BME280;4966;48.112;9.282;2023-07-13T00:00:15;94751.28;;;20.30;100.00
9855;BME280;4966;48.112;9.282;2023-07-13T00:02:42;94755.25;;;20.22;100.00
9855;BME280;4966;48.112;9.282;2023-07-13T00:05:08;94752.88;;;20.28;100.00
9855;BME280;4966;48.112;9.282;2023-07-13T00:07:34;94766.66;;;20.42;100.00
9855;BME280;4966;48.112;9.282;2023-07-13T00:10:00;94750.97;;;20.07;100.00
9855;BME280;4966;48.112;9.282;2023-07-13T00:12:28;94748.47;;;20.48;97.46
9855;BME280;4966;48.112;9.282;2023-07-13T00:14:57;94745.75;;;20.41;96.64
9855;BME280;4966;48.112;9.282;2023-07-13T00:17:23;94756.41;;;20.39;95.92
9855;BME280;4966;48.112;9.282;2023-07-13T00:19:48;94753.25;;;20.30;95.70
9855;BME280;4966;48.112;9.282;2023-07-13T00:22:14;94754.50;;;20.14;95.37
9855;BME280;4966;48.112;9.282;2023-07-13T00:24:39;94766.34;;;20.18;94.74
9855;BME280;4966;48.112;9.282;2023-07-13T00:27:08;94767.88;;;20.27;94.37
9855;BME280;4966;48.112;9.282;2023-07-13T00:29:34;94762.75;;;20.25;94.49
9855;BME280;4966;48.112;9.282;2023-07-13T00:32:00;94759.59;;;20.19;94.93
9855;BME280;4966;48.112;9.282;2023-07-13T00:34:25;94756.88;;;20.09;95.05
9855;BME280;4966;48.112;9.282;2023-07-13T00:36:51;94766.75;;;19.88;94.26
9855;BME280;4966;48.112;9.282;2023-07-13T00:39:16;94763.97;;;20.03;92.72
9855;BME280;4966;48.112;9.282;2023-07-13T00:41:41;94766.75;;;19.92;93.02
9855;BME280;4966;48.112;9.282;2023-07-13T00:44:13;94773.47;;;19.91;93.26
9855;BME280;4966;48.112;9.282;2023-07-13T00:46:39;94767.53;;;19.89;93.84
9855;BME280;4966;48.112;9.282;2023-07-13T00:49:07;94762.81;;;19.93;93.57
9855;BME280;4966;48.112;9.282;2023-07-13T00:51:42;94770.72;;;19.73;94.06
9855;BME280;4966;48.112;9.282;2023-07-13T00:54:11;94760.06;;;19.71;93.93
9855;BME280;4966;48.112;9.282;2023-07-13T00:56:39;94765.59;;;19.71;92.85
9855;BME280;4966;48.112;9.282;2023-07-13T00:59:06;94760.88;;;19.68;93.22
9855;BME280;4966;48.112;9.282;2023-07-13T01:01:33;94763.59;;;19.54;93.63
9855;BME280;4966;48.112;9.282;2023-07-13T01:03:59;94762.78;;;19.43;93.61
9855;BME280;4966;48.112;9.282;2023-07-13T01:06:24;94768.28;;;19.39;93.50
9855;BME280;4966;48.112;9.282;2023-07-13T01:08:50;94765.13;;;19.16;93.73
9855;BME280;4966;48.112;9.282;2023-07-13T01:11:21;94769.78;;;19.01;93.66
9855;BME280;4966;48.112;9.282;2023-07-13T01:13:47;94765.09;;;19.01;93.67
9855;BME280;4966;48.112;9.282;2023-07-13T01:16:25;94763.50;;;18.97;94.45
9855;BME280;4966;48.112;9.282;2023-07-13T01:18:51;94773.72;;;19.00;94.56
9855;BME280;4966;48.112;9.282;2023-07-13T01:21:17;94770.16;;;18.96;95.00
9855;BME280;4966;48.112;9.282;2023-07-13T01:23:44;94774.13;;;19.02;95.37
9855;BME280;4966;48.112;9.282;2023-07-13T01:26:10;94780.41;;;18.95;95.66
9855;BME280;4966;48.112;9.282;2023-07-13T01:28:37;94770.59;;;19.05;95.14
9855;BME280;4966;48.112;9.282;2023-07-13T01:31:03;94776.09;;;18.98;95.24
9855;BME280;4966;48.112;9.282;2023-07-13T01:33:29;94775.31;;;18.97;94.88
9855;BME280;4966;48.112;9.282;2023-07-13T01:35:54;94775.69;;;18.96;94.70
9855;BME280;4966;48.112;9.282;2023-07-13T01:38:24;94776.47;;;18.92;94.37
9855;BME280;4966;48.112;9.282;2023-07-13T01:40:50;94767.81;;;18.94;94.48
9855;BME280;4966;48.112;9.282;2023-07-13T01:43:16;94767.78;;;18.90;93.14
9855;BME280;4966;48.112;9.282;2023-07-13T01:45:42;94759.50;;;18.83;91.86
9855;BME280;4966;48.112;9.282;2023-07-13T01:48:09;94767.69;;;18.69;92.32
9855;BME280;4966;48.112;9.282;2023-07-13T01:50:35;94773.06;;;18.37;93.87
9855;BME280;4966;48.112;9.282;2023-07-13T01:53:01;94763.63;;;18.34;95.07
9855;BME280;4966;48.112;9.282;2023-07-13T01:55:27;94767.97;;;18.46;94.52
9855;BME280;4966;48.112;9.282;2023-07-13T01:57:53;94771.47;;;18.36;94.96
9855;BME280;4966;48.112;9.282;2023-07-13T02:00:18;94766.06;;;18.54;94.23
9855;BME280;4966;48.112;9.282;2023-07-13T02:02:44;94770.31;;;18.37;94.83
9855;BME280;4966;48.112;9.282;2023-07-13T02:05:10;94766.00;;;18.43;94.92
9855;BME280;4966;48.112;9.282;2023-07-13T02:07:35;94773.06;;;18.40;95.14
9855;BME280;4966;48.112;9.282;2023-07-13T02:10:00;94764.84;;;18.47;94.22
9855;BME280;4966;48.112;9.282;2023-07-13T02:12:26;94757.78;;;18.50;93.08
9855;BME280;4966;48.112;9.282;2023-07-13T02:14:51;94766.75;;;18.36;93.49
9855;BME280;4966;48.112;9.282;2023-07-13T02:17:16;94749.47;;;18.39;92.54
9855;BME280;4966;48.112;9.282;2023-07-13T02:19:42;94753.72;;;18.26;94.12
9855;BME280;4966;48.112;9.282;2023-07-13T02:22:07;94750.97;;;18.26;93.12
9855;BME280;4966;48.112;9.282;2023-07-13T02:24:32;94748.19;;;18.15;92.98
9855;BME280;4966;48.112;9.282;2023-07-13T02:26:58;94755.16;;;18.02;94.18
9855;BME280;4966;48.112;9.282;2023-07-13T02:29:23;94741.44;;;18.05;94.33
9855;BME280;4966;48.112;9.282;2023-07-13T02:31:49;94755.94;;;18.02;94.40
9855;BME280;4966;48.112;9.282;2023-07-13T02:34:14;94752.19;;;17.70;97.52
9855;BME280;4966;48.112;9.282;2023-07-13T02:36:40;94760.53;;;17.80;97.37
9855;BME280;4966;48.112;9.282;2023-07-13T02:39:06;94755.16;;;18.02;95.42
9855;BME280;4966;48.112;9.282;2023-07-13T02:41:31;94761.03;;;17.97;95.92
9855;BME280;4966;48.112;9.282;2023-07-13T02:44:01;94756.72;;;17.99;95.05
9855;BME280;4966;48.112;9.282;2023-07-13T02:46:34;94753.13;;;17.92;93.96
9855;BME280;4966;48.112;9.282;2023-07-13T02:49:03;94765.66;;;17.85;93.34
9855;BME280;4966;48.112;9.282;2023-07-13T02:51:29;94757.47;;;17.93;93.44
9855;BME280;4966;48.112;9.282;2023-07-13T02:53:54;94757.84;;;17.91;93.93
9855;BME280;4966;48.112;9.282;2023-07-13T02:56:23;94760.16;;;17.82;94.68
9855;BME280;4966;48.112;9.282;2023-07-13T02:58:48;94759.81;;;17.91;94.62
9855;BME280;4966;48.112;9.282;2023-07-13T03:01:14;94759.50;;;18.06;92.65
9855;BME280;4966;48.112;9.282;2023-07-13T03:03:43;94759.88;;;18.01;92.99
9855;BME280;4966;48.112;9.282;2023-07-13T03:06:08;94758.66;;;17.95;94.22
9855;BME280;4966;48.112;9.282;2023-07-13T03:08:33;94754.69;;;17.93;93.97
9855;BME280;4966;48.112;9.282;2023-07-13T03:11:11;94770.38;;;17.81;95.38
9855;BME280;4966;48.112;9.282;2023-07-13T03:13:37;94764.56;;;17.97;94.40
9855;BME280;4966;48.112;9.282;2023-07-13T03:16:04;94775.56;;;17.94;94.60
9855;BME280;4966;48.112;9.282;2023-07-13T03:18:29;94782.06;;;17.75;94.71
9855;BME280;4966;48.112;9.282;2023-07-13T03:20:55;94779.06;;;17.87;93.70
9855;BME280;4966;48.112;9.282;2023-07-13T03:23:21;94782.16;;;17.82;92.90
9855;BME280;4966;48.112;9.282;2023-07-13T03:25:47;94780.53;;;17.77;88.11
9855;BME280;4966;48.112;9.282;2023-07-13T03:28:13;94774.31;;;17.84;85.14
9855;BME280;4966;48.112;9.282;2023-07-13T03:30:38;94775.81;;;17.78;86.32
9855;BME280;4966;48.112;9.282;2023-07-13T03:33:04;94785.19;;;17.70;89.09
9855;BME280;4966;48.112;9.282;2023-07-13T03:35:29;94783.00;;;17.90;87.06
9855;BME280;4966;48.112;9.282;2023-07-13T03:37:59;94780.91;;;17.76;88.67
9855;BME280;4966;48.112;9.282;2023-07-13T03:40:25;94774.75;;;17.90;87.83
9855;BME280;4966;48.112;9.282;2023-07-13T03:42:52;94782.72;;;18.05;89.22
9855;BME280;4966;48.112;9.282;2023-07-13T03:45:17;94784.69;;;18.09;89.78
9855;BME280;4966;48.112;9.282;2023-07-13T03:47:42;94778.47;;;18.19;89.48
9855;BME280;4966;48.112;9.282;2023-07-13T03:50:08;94789.28;;;17.87;88.38
9855;BME280;4966;48.112;9.282;2023-07-13T03:52:34;94789.38;;;17.56;89.26
9855;BME280;4966;48.112;9.282;2023-07-13T03:54:59;94806.59;;;17.50;89.84
9855;BME280;4966;48.112;9.282;2023-07-13T03:57:25;94810.31;;;17.68;89.68
9855;BME280;4966;48.112;9.282;2023-07-13T03:59:51;94812.44;;;17.82;89.99
9855;BME280;4966;48.112;9.282;2023-07-13T04:02:16;94815.25;;;17.89;89.58
9855;BME280;4966;48.112;9.282;2023-07-13T04:04:42;94809.00;;;17.99;89.60
9855;BME280;4966;48.112;9.282;2023-07-13T04:07:08;94808.22;;;17.99;90.37
9855;BME280;4966;48.112;9.282;2023-07-13T04:09:34;94807.09;;;18.07;89.00
9855;BME280;4966;48.112;9.282;2023-07-13T04:11:59;94821.59;;;18.00;87.84
9855;BME280;4966;48.112;9.282;2023-07-13T04:14:24;94825.63;;;18.14;88.55
9855;BME280;4966;48.112;9.282;2023-07-13T04:16:49;94824.84;;;18.17;89.41
9855;BME280;4966;48.112;9.282;2023-07-13T04:19:15;94817.06;;;18.22;87.52
9855;BME280;4966;48.112;9.282;2023-07-13T04:21:40;94821.59;;;18.00;86.52
9855;BME280;4966;48.112;9.282;2023-07-13T04:24:05;94825.94;;;18.01;86.82
9855;BME280;4966;48.112;9.282;2023-07-13T04:26:31;94828.28;;;17.96;87.16
9855;BME280;4966;48.112;9.282;2023-07-13T04:28:57;94825.16;;;18.01;88.32
9855;BME280;4966;48.112;9.282;2023-07-13T04:31:22;94829.53;;;18.09;87.56
9855;BME280;4966;48.112;9.282;2023-07-13T04:33:48;94839.78;;;18.12;86.58
9855;BME280;4966;48.112;9.282;2023-07-13T04:36:15;94837.06;;;18.16;86.70
9855;BME280;4966;48.112;9.282;2023-07-13T04:38:40;94831.97;;;18.21;85.88
9855;BME280;4966;48.112;9.282;2023-07-13T04:41:07;94836.28;;;18.15;86.03
9855;BME280;4966;48.112;9.282;2023-07-13T04:43:33;94832.69;;;18.11;88.65
9855;BME280;4966;48.112;9.282;2023-07-13T04:46:10;94835.28;;;18.45;86.69
9855;BME280;4966;48.112;9.282;2023-07-13T04:48:36;94841.59;;;18.49;84.84
9855;BME280;4966;48.112;9.282;2023-07-13T04:51:03;94846.44;;;18.70;85.98
9855;BME280;4966;48.112;9.282;2023-07-13T04:53:29;94844.94;;;18.80;86.87
9855;BME280;4966;48.112;9.282;2023-07-13T04:55:55;94845.34;;;18.85;86.68
9855;BME280;4966;48.112;9.282;2023-07-13T04:58:20;94847.72;;;18.90;84.83
9855;BME280;4966;48.112;9.282;2023-07-13T05:00:46;94851.25;;;18.84;85.69
9855;BME280;4966;48.112;9.282;2023-07-13T05:03:12;94855.22;;;18.94;85.27
9855;BME280;4966;48.112;9.282;2023-07-13T05:05:37;94845.81;;;19.02;84.41
9855;BME280;4966;48.112;9.282;2023-07-13T05:08:03;94849.38;;;19.09;83.95
9855;BME280;4966;48.112;9.282;2023-07-13T05:10:28;94852.53;;;19.04;83.47
9855;BME280;4966;48.112;9.282;2023-07-13T05:12:54;94852.16;;;19.06;83.89
9855;BME280;4966;48.112;9.282;2023-07-13T05:15:22;94862.31;;;18.98;84.24
9855;BME280;4966;48.112;9.282;2023-07-13T05:17:48;94862.31;;;18.95;84.94
9855;BME280;4966;48.112;9.282;2023-07-13T05:20:14;94862.28;;;18.91;85.63
9855;BME280;4966;48.112;9.282;2023-07-13T05:22:41;94867.84;;;18.95;86.41
9855;BME280;4966;48.112;9.282;2023-07-13T05:25:07;94878.09;;;18.94;85.51
9855;BME280;4966;48.112;9.282;2023-07-13T05:27:34;94868.72;;;19.13;84.32
9855;BME280;4966;48.112;9.282;2023-07-13T05:29:59;94870.69;;;19.20;82.81
9855;BME280;4966;48.112;9.282;2023-07-13T05:32:25;94876.19;;;19.16;83.28
9855;BME280;4966;48.112;9.282;2023-07-13T05:34:50;94878.97;;;19.16;84.84
9855;BME280;4966;48.112;9.282;2023-07-13T05:37:15;94884.84;;;19.15;85.21
9855;BME280;4966;48.112;9.282;2023-07-13T05:39:41;94881.69;;;19.09;85.63
9855;BME280;4966;48.112;9.282;2023-07-13T05:42:06;94874.25;;;19.27;84.85
9855;BME280;4966;48.112;9.282;2023-07-13T05:44:32;94879.78;;;19.34;84.79
9855;BME280;4966;48.112;9.282;2023-07-13T05:46:57;94889.34;;;19.59;83.66
9855;BME280;4966;48.112;9.282;2023-07-13T05:49:23;94892.13;;;19.66;81.68
9855;BME280;4966;48.112;9.282;2023-07-13T05:51:48;94887.03;;;19.86;81.40
9855;BME280;4966;48.112;9.282;2023-07-13T05:54:14;94897.31;;;20.03;79.38
9855;BME280;4966;48.112;9.282;2023-07-13T05:56:39;94903.53;;;19.64;77.77
9855;BME280;4966;48.112;9.282;2023-07-13T05:59:05;94915.81;;;19.85;78.74
9855;BME280;4966;48.112;9.282;2023-07-13T06:01:30;94916.97;;;19.69;77.59
9855;BME280;4966;48.112;9.282;2023-07-13T06:03:56;94907.06;;;19.54;77.56
9855;BME280;4966;48.112;9.282;2023-07-13T06:06:22;94916.19;;;19.80;78.28
9855;BME280;4966;48.112;9.282;2023-07-13T06:08:47;94907.53;;;19.77;78.21
9855;BME280;4966;48.112;9.282;2023-07-13T06:11:18;94916.53;;;19.60;80.64
9855;BME280;4966;48.112;9.282;2023-07-13T06:13:44;94909.81;;;19.54;82.89
9855;BME280;4966;48.112;9.282;2023-07-13T06:16:12;94906.31;;;19.68;82.77
9855;BME280;4966;48.112;9.282;2023-07-13T06:18:38;94916.94;;;19.62;81.78
9855;BME280;4966;48.112;9.282;2023-07-13T06:21:12;94917.03;;;19.91;82.30
9855;BME280;4966;48.112;9.282;2023-07-13T06:23:38;94926.53;;;20.47;76.06
9855;BME280;4966;48.112;9.282;2023-07-13T06:26:04;94927.28;;;20.91;73.07
9855;BME280;4966;48.112;9.282;2023-07-13T06:28:30;94920.81;;;21.37;74.05
9855;BME280;4966;48.112;9.282;2023-07-13T06:30:57;94926.34;;;21.33;69.88
9855;BME280;4966;48.112;9.282;2023-07-13T06:33:23;94928.69;;;21.49;72.04
9855;BME280;4966;48.112;9.282;2023-07-13T06:35:48;94934.22;;;21.49;70.86
9855;BME280;4966;48.112;9.282;2023-07-13T06:38:14;94929.00;;;21.65;70.12
9855;BME280;4966;48.112;9.282;2023-07-13T06:40:39;94925.91;;;21.53;72.07
9855;BME280;4966;48.112;9.282;2023-07-13T06:43:04;94920.78;;;21.51;66.33
9855;BME280;4966;48.112;9.282;2023-07-13T06:45:29;94925.25;;;21.13;68.73
9855;BME280;4966;48.112;9.282;2023-07-13T06:47:55;94936.75;;;21.00;70.31
9855;BME280;4966;48.112;9.282;2023-07-13T06:50:20;94940.19;;;21.40;65.95
9855;BME280;4966;48.112;9.282;2023-07-13T06:52:46;94939.63;;;21.78;63.18
9855;BME280;4966;48.112;9.282;2023-07-13T06:55:11;94942.47;;;21.67;59.49
9855;BME280;4966;48.112;9.282;2023-07-13T06:57:36;94931.97;;;22.00;58.95
9855;BME280;4966;48.112;9.282;2023-07-13T07:00:02;94932.00;;;21.96;62.43
9855;BME280;4966;48.112;9.282;2023-07-13T07:02:27;94932.16;;;22.34;60.62
9855;BME280;4966;48.112;9.282;2023-07-13T07:04:52;94943.41;;;22.61;60.74
9855;BME280;4966;48.112;9.282;2023-07-13T07:07:19;94932.97;;;22.76;63.00
9855;BME280;4966;48.112;9.282;2023-07-13T07:09:44;94934.31;;;22.61;58.45
9855;BME280;4966;48.112;9.282;2023-07-13T07:12:10;94938.72;;;22.55;55.43
9855;BME280;4966;48.112;9.282;2023-07-13T07:14:35;94932.66;;;22.67;53.61
9855;BME280;4966;48.112;9.282;2023-07-13T07:17:00;94938.00;;;22.88;51.20
9855;BME280;4966;48.112;9.282;2023-07-13T07:19:29;94945.56;;;22.88;55.29
9855;BME280;4966;48.112;9.282;2023-07-13T07:21:54;94945.75;;;22.66;56.74
9855;BME280;4966;48.112;9.282;2023-07-13T07:24:19;94944.72;;;22.91;56.27
9855;BME280;4966;48.112;9.282;2023-07-13T07:26:45;94948.25;;;22.95;53.55
9855;BME280;4966;48.112;9.282;2023-07-13T07:29:10;94956.09;;;23.07;49.70
9855;BME280;4966;48.112;9.282;2023-07-13T07:31:35;94954.94;;;23.05;52.36
9855;BME280;4966;48.112;9.282;2023-07-13T07:34:02;94954.44;;;23.13;50.00
9855;BME280;4966;48.112;9.282;2023-07-13T07:36:28;94950.38;;;23.22;52.90
9855;BME280;4966;48.112;9.282;2023-07-13T07:38:53;94956.28;;;23.27;55.46
9855;BME280;4966;48.112;9.282;2023-07-13T07:41:18;94957.25;;;23.10;52.42
9855;BME280;4966;48.112;9.282;2023-07-13T07:43:44;94950.59;;;23.04;52.49
9855;BME280;4966;48.112;9.282;2023-07-13T07:46:09;94952.72;;;22.82;53.72
9855;BME280;4966;48.112;9.282;2023-07-13T07:48:34;94954.28;;;22.41;51.70
9855;BME280;4966;48.112;9.282;2023-07-13T07:51:00;94953.75;;;22.57;52.17
9855;BME280;4966;48.112;9.282;2023-07-13T07:53:25;94954.59;;;22.50;56.99
9855;BME280;4966;48.112;9.282;2023-07-13T07:55:50;94964.06;;;22.57;59.94
9855;BME280;4966;48.112;9.282;2023-07-13T07:58:16;94958.13;;;22.58;58.56
9855;BME280;4966;48.112;9.282;2023-07-13T08:00:42;94965.28;;;22.97;60.87
9855;BME280;4966;48.112;9.282;2023-07-13T08:03:07;94957.69;;;23.05;58.38
9855;BME280;4966;48.112;9.282;2023-07-13T08:05:35;94960.47;;;23.43;52.49
9855;BME280;4966;48.112;9.282;2023-07-13T08:08:00;94963.72;;;23.34;48.72
9855;BME280;4966;48.112;9.282;2023-07-13T08:10:26;94965.16;;;23.49;50.20
9855;BME280;4966;48.112;9.282;2023-07-13T08:12:51;94969.75;;;23.29;51.42
9855;BME280;4966;48.112;9.282;2023-07-13T08:15:17;94970.13;;;23.31;55.62
9855;BME280;4966;48.112;9.282;2023-07-13T08:17:43;94961.91;;;23.54;52.33
9855;BME280;4966;48.112;9.282;2023-07-13T08:20:08;94963.53;;;24.13;49.99
9855;BME280;4966;48.112;9.282;2023-07-13T08:22:34;94960.22;;;23.64;52.67
9855;BME280;4966;48.112;9.282;2023-07-13T08:25:00;94976.06;;;23.98;49.65
9855;BME280;4966;48.112;9.282;2023-07-13T08:27:27;94968.00;;;23.80;49.87
9855;BME280;4966;48.112;9.282;2023-07-13T08:29:53;94964.97;;;23.98;46.74
9855;BME280;4966;48.112;9.282;2023-07-13T08:32:20;94968.13;;;24.27;44.90
9855;BME280;4966;48.112;9.282;2023-07-13T08:34:46;94969.41;;;24.50;45.11
9855;BME280;4966;48.112;9.282;2023-07-13T08:37:11;94970.91;;;25.01;46.28
9855;BME280;4966;48.112;9.282;2023-07-13T08:39:37;94973.72;;;25.25;45.78
9855;BME280;4966;48.112;9.282;2023-07-13T08:42:32;94976.44;;;24.81;44.59
9855;BME280;4966;48.112;9.282;2023-07-13T08:47:57;94977.34;;;25.22;47.39
9855;BME280;4966;48.112;9.282;2023-07-13T08:50:29;94969.69;;;24.01;47.31
9855;BME280;4966;48.112;9.282;2023-07-13T08:52:56;94981.63;;;25.03;46.49
9855;BME280;4966;48.112;9.282;2023-07-13T08:55:29;94976.56;;;24.98;47.95
9855;BME280;4966;48.112;9.282;2023-07-13T08:58:05;94972.78;;;24.61;45.92
9855;BME280;4966;48.112;9.282;2023-07-13T09:03:46;94976.38;;;22.97;47.00
9855;BME280;4966;48.112;9.282;2023-07-13T09:06:15;94981.41;;;24.43;44.12
9855;BME280;4966;48.112;9.282;2023-07-13T09:11:27;94976.47;;;25.88;43.19
9855;BME280;4966;48.112;9.282;2023-07-13T09:14:13;94978.59;;;25.61;43.11
9855;BME280;4966;48.112;9.282;2023-07-13T09:16:41;94979.16;;;25.32;43.54
9855;BME280;4966;48.112;9.282;2023-07-13T09:19:11;94981.00;;;26.19;41.81
9855;BME280;4966;48.112;9.282;2023-07-13T09:21:41;94984.41;;;25.90;42.51
9855;BME280;4966;48.112;9.282;2023-07-13T09:26:58;94985.03;;;25.58;41.75
9855;BME280;4966;48.112;9.282;2023-07-13T09:29:30;94980.41;;;25.28;39.57
9855;BME280;4966;48.112;9.282;2023-07-13T09:32:00;94983.47;;;25.97;39.65
9855;BME280;4966;48.112;9.282;2023-07-13T09:34:26;94985.50;;;26.49;37.79
9855;BME280;4966;48.112;9.282;2023-07-13T09:36:51;94986.13;;;25.40;42.44
9855;BME280;4966;48.112;9.282;2023-07-13T09:42:21;94988.47;;;25.65;39.53
9855;BME280;4966;48.112;9.282;2023-07-13T09:47:21;94978.41;;;25.92;41.93
9855;BME280;4966;48.112;9.282;2023-07-13T09:50:10;94971.91;;;25.98;43.06
9855;BME280;4966;48.112;9.282;2023-07-13T09:52:45;94973.03;;;24.94;40.10
9855;BME280;4966;48.112;9.282;2023-07-13T09:55:26;94973.53;;;25.36;37.14
9855;BME280;4966;48.112;9.282;2023-07-13T09:57:51;94975.09;;;25.37;37.98
9855;BME280;4966;48.112;9.282;2023-07-13T10:00:29;94969.31;;;25.67;38.06
9855;BME280;4966;48.112;9.282;2023-07-13T10:02:59;94967.22;;;25.08;37.66
9855;BME280;4966;48.112;9.282;2023-07-13T10:05:25;94962.50;;;24.58;39.51
9855;BME280;4966;48.112;9.282;2023-07-13T10:07:51;94975.19;;;24.32;41.01
9855;BME280;4966;48.112;9.282;2023-07-13T10:10:22;94971.38;;;24.22;41.06
9855;BME280;4966;48.112;9.282;2023-07-13T10:12:49;94970.03;;;24.84;41.54
9855;BME280;4966;48.112;9.282;2023-07-13T10:15:21;94964.09;;;25.06;39.88
9855;BME280;4966;48.112;9.282;2023-07-13T10:17:48;94959.50;;;25.19;41.25
9855;BME280;4966;48.112;9.282;2023-07-13T10:20:14;94964.63;;;25.21;40.20
9855;BME280;4966;48.112;9.282;2023-07-13T10:23:10;94967.97;;;24.89;41.90
9855;BME280;4966;48.112;9.282;2023-07-13T10:25:41;94965.59;;;24.63;43.87
9855;BME280;4966;48.112;9.282;2023-07-13T10:28:30;94975.44;;;25.15;42.39
9855;BME280;4966;48.112;9.282;2023-07-13T10:30:58;94978.69;;;24.90;43.93
9855;BME280;4966;48.112;9.282;2023-07-13T10:33:25;94971.31;;;25.67;38.14
9855;BME280;4966;48.112;9.282;2023-07-13T10:35:58;94966.56;;;26.40;38.48
9855;BME280;4966;48.112;9.282;2023-07-13T10:38:27;94964.94;;;26.06;38.47
9855;BME280;4966;48.112;9.282;2023-07-13T10:41:00;94964.13;;;26.42;40.61
9855;BME280;4966;48.112;9.282;2023-07-13T10:43:33;94960.16;;;26.76;39.84
9855;BME280;4966;48.112;9.282;2023-07-13T10:46:03;94967.34;;;26.41;39.93
9855;BME280;4966;48.112;9.282;2023-07-13T10:48:30;94964.91;;;26.43;36.65
9855;BME280;4966;48.112;9.282;2023-07-13T10:51:00;94960.00;;;27.45;37.23
9855;BME280;4966;48.112;9.282;2023-07-13T10:53:31;94959.59;;;27.89;37.65
9855;BME280;4966;48.112;9.282;2023-07-13T10:56:04;94957.69;;;27.27;34.90
9855;BME280;4966;48.112;9.282;2023-07-13T10:58:37;94948.03;;;27.45;34.78
9855;BME280;4966;48.112;9.282;2023-07-13T11:03:32;94954.19;;;27.07;38.43
9855;BME280;4966;48.112;9.282;2023-07-13T11:18:44;94960.03;;;26.30;34.71
9855;BME280;4966;48.112;9.282;2023-07-13T11:21:29;94949.69;;;26.80;35.39
9855;BME280;4966;48.112;9.282;2023-07-13T11:24:15;94945.38;;;27.54;35.75
9855;BME280;4966;48.112;9.282;2023-07-13T11:31:40;94939.94;;;28.43;34.67
9855;BME280;4966;48.112;9.282;2023-07-13T11:34:26;94947.34;;;28.37;33.86
9855;BME280;4966;48.112;9.282;2023-07-13T11:36:52;94942.06;;;28.27;35.32
9855;BME280;4966;48.112;9.282;2023-07-13T11:39:22;94940.84;;;28.02;35.25
9855;BME280;4966;48.112;9.282;2023-07-13T11:41:53;94950.81;;;28.29;35.93
9855;BME280;4966;48.112;9.282;2023-07-13T11:44:22;94945.59;;;27.47;36.56
9855;BME280;4966;48.112;9.282;2023-07-13T11:46:53;94949.13;;;26.36;38.64
9855;BME280;4966;48.112;9.282;2023-07-13T11:49:21;94953.16;;;25.79;38.98
9855;BME280;4966;48.112;9.282;2023-07-13T11:51:48;94943.81;;;25.89;41.77
9855;BME280;4966;48.112;9.282;2023-07-13T11:56:59;94939.06;;;26.59;41.12
9855;BME280;4966;48.112;9.282;2023-07-13T11:59:27;94944.25;;;26.40;40.67
9855;BME280;4966;48.112;9.282;2023-07-13T12:01:54;94946.34;;;26.20;39.63
9855;BME280;4966;48.112;9.282;2023-07-13T12:07:17;94933.22;;;27.61;37.76
9855;BME280;4966;48.112;9.282;2023-07-13T12:09:43;94931.00;;;29.79;34.34
9855;BME280;4966;48.112;9.282;2023-07-13T12:12:18;94935.66;;;31.62;33.29
9855;BME280;4966;48.112;9.282;2023-07-13T12:14:44;94940.94;;;32.06;29.13
9855;BME280;4966;48.112;9.282;2023-07-13T12:17:16;94933.59;;;34.25;25.49
9855;BME280;4966;48.112;9.282;2023-07-13T12:19:41;94935.59;;;34.69;25.96
9855;BME280;4966;48.112;9.282;2023-07-13T12:22:11;94923.56;;;32.08;29.85
9855;BME280;4966;48.112;9.282;2023-07-13T12:24:37;94930.84;;;29.82;32.56
9855;BME280;4966;48.112;9.282;2023-07-13T12:27:05;94921.25;;;29.26;34.51
9855;BME280;4966;48.112;9.282;2023-07-13T12:29:32;94924.09;;;27.44;36.67
9855;BME280;4966;48.112;9.282;2023-07-13T12:31:58;94928.84;;;27.60;37.46
9855;BME280;4966;48.112;9.282;2023-07-13T12:34:25;94930.59;;;29.45;35.80
9855;BME280;4966;48.112;9.282;2023-07-13T12:37:01;94919.19;;;32.16;31.12
9855;BME280;4966;48.112;9.282;2023-07-13T12:39:34;94924.38;;;31.16;31.92
9855;BME280;4966;48.112;9.282;2023-07-13T12:44:46;94918.00;;;31.71;29.80
9855;BME280;4966;48.112;9.282;2023-07-13T12:47:13;94923.84;;;33.43;28.25
9855;BME280;4966;48.112;9.282;2023-07-13T12:49:48;94918.78;;;33.47;27.24
9855;BME280;4966;48.112;9.282;2023-07-13T12:52:17;94918.22;;;32.95;27.68
9855;BME280;4966;48.112;9.282;2023-07-13T12:54:55;94915.78;;;33.51;27.92
9855;BME280;4966;48.112;9.282;2023-07-13T12:57:24;94910.38;;;35.63;27.29
9855;BME280;4966;48.112;9.282;2023-07-13T12:59:54;94912.69;;;36.74;24.04
9855;BME280;4966;48.112;9.282;2023-07-13T13:02:28;94913.56;;;35.50;25.23
9855;BME280;4966;48.112;9.282;2023-07-13T13:04:55;94905.47;;;36.41;24.29
9855;BME280;4966;48.112;9.282;2023-07-13T13:07:22;94898.91;;;36.93;23.10
9855;BME280;4966;48.112;9.282;2023-07-13T13:09:47;94896.84;;;36.56;24.07
9855;BME280;4966;48.112;9.282;2023-07-13T13:12:13;94906.34;;;35.69;25.97
9855;BME280;4966;48.112;9.282;2023-07-13T13:14:38;94902.31;;;36.66;23.00
9855;BME280;4966;48.112;9.282;2023-07-13T13:17:18;94895.69;;;38.90;23.20
9855;BME280;4966;48.112;9.282;2023-07-13T13:19:45;94896.44;;;34.47;24.86
9855;BME280;4966;48.112;9.282;2023-07-13T13:22:10;94909.66;;;35.47;26.08
9855;BME280;4966;48.112;9.282;2023-07-13T13:24:36;94896.78;;;34.05;27.00
9855;BME280;4966;48.112;9.282;2023-07-13T13:27:01;94901.81;;;32.60;29.18
9855;BME280;4966;48.112;9.282;2023-07-13T13:29:27;94898.38;;;32.13;28.95
9855;BME280;4966;48.112;9.282;2023-07-13T13:31:54;94901.81;;;28.11;33.63
9855;BME280;4966;48.112;9.282;2023-07-13T13:34:21;94899.44;;;28.61;32.66
9855;BME280;4966;48.112;9.282;2023-07-13T13:36:49;94899.91;;;28.59;33.18
9855;BME280;4966;48.112;9.282;2023-07-13T13:39:27;94905.06;;;28.48;35.46
9855;BME280;4966;48.112;9.282;2023-07-13T13:41:53;94905.91;;;27.94;35.92
9855;BME280;4966;48.112;9.282;2023-07-13T13:44:20;94912.31;;;27.23;38.92
9855;BME280;4966;48.112;9.282;2023-07-13T13:46:49;94914.78;;;26.23;46.31
9855;BME280;4966;48.112;9.282;2023-07-13T13:49:21;94916.91;;;24.75;54.41
9855;BME280;4966;48.112;9.282;2023-07-13T13:51:47;94913.66;;;23.45;54.33
9855;BME280;4966;48.112;9.282;2023-07-13T13:54:14;94914.56;;;23.34;56.38
9855;BME280;4966;48.112;9.282;2023-07-13T13:56:47;94911.44;;;23.29;58.94
9855;BME280;4966;48.112;9.282;2023-07-13T13:59:13;94920.38;;;23.44;57.52
9855;BME280;4966;48.112;9.282;2023-07-13T14:01:40;94913.97;;;24.12;60.66
9855;BME280;4966;48.112;9.282;2023-07-13T14:04:06;94906.72;;;26.78;47.84
9855;BME280;4966;48.112;9.282;2023-07-13T14:06:34;94909.44;;;29.10;44.88
9855;BME280;4966;48.112;9.282;2023-07-13T14:09:00;94904.69;;;31.90;34.03